Round Potrero (157, 6923) Station Data

Red Flag Warning: No
Fire Weather Zone: 250
SDGE Region: Mountain Empire
Lat/Lon: 32.648/-116.631

Observations

Time Wind Speed/Gust Temp(F) RH Fuel Moist Fuel Temp(F) Dewpt(F) Tmax(F) Tmin(F) Accum Precip 10-min Precip SL Press(mb)
6/22 4:50am 89 1 G 2 76° 29% - - 41° 79.8° 75.1° - - -
6/22 4:40am 96 1 G 2 75° 30% - - 42° 79.8° 75.1° - - -
6/22 4:30am 100 1 G 1 76° 31% - - 43° 79.8° 75.2° - - -
6/22 4:20am 101 2 G 2 76° 32% - - 43° 79.8° 75.2° - - -
6/22 4:10am 78 2 G 2 76° 33% - - 45° 79.8° 75.2° - - -
6/22 4:00am 60 1 G 2 76° 33% - - 45° 79.8° 75.5° - - -
6/22 3:50am 92 1 G 1 76° 34% - - 46° 79.8° 75.8° - - -
6/22 3:40am 84 1 G 1 76° 33% - - 45° 79.8° 75.8° - - -
6/22 3:30am 86 1 G 1 76° 34% - - 46° 79.8° 75.8° - - -
6/22 3:20am 98 2 G 2 76° 35% - - 47° 79.8° 75.9° - - -
6/22 3:10am 94 1 G 1 77° 35% - - 47° 79.8° 76.3° - - -
6/22 3:00am 87 1 G 1 77° 35% - - 47° 79.8° 76.3° - - -
6/22 2:50am 84 1 G 1 77° 34% - - 47° 79.8° 76.4° - - -
6/22 2:40am 100 0 G 1 77° 34% - - 47° 79.8° 76.4° - - -
6/22 2:30am 78 0 G 1 77° 34% - - 46° 79.8° 76.4° - - -
6/22 2:20am 0 0 G 0 77° 34% - - 46° 79.8° 76.6° - - -
6/22 2:10am 0 0 G 0 77° 33% - - 46° 79.8° 76.6° - - -
6/22 2:00am 0 0 G 0 77° 33% - - 46° 79.8° 76.7° - - -
6/22 1:50am 0 0 G 0 77° 33% - - 46° 79.8° 76.9° - - -
6/22 1:40am 55 0 G 1 77° 33% - - 46° 79.8° 76.9° - - -
6/22 1:30am 101 0 G 1 77° 34% - - 47° 79.8° 76.9° - - -
6/22 1:20am 91 1 G 2 77° 34% - - 47° 79.8° 77.2° - - -
6/22 1:10am 114 1 G 2 78° 34% - - 48° 79.8° 77.3° - - -
6/22 1:00am 231 2 G 3 79° 35% - - 49° 79.8° 78.1° - - -
6/22 12:50am 248 2 G 3 80° 34% - - 49° 79.8° 78.4° - - -
6/22 12:40am 252 2 G 3 79° 33% - - 48° 79.6° 78.4° - - -
6/22 12:30am 196 0 G 1 79° 33% - - 47° 79.4° 78.5° - - -
6/22 12:20am 249 0 G 1 79° 32% - - 47° 79.3° 78.6° - - -
6/22 12:10am 179 0 G 0 79° 32% - - 47° 79.3° 78.6° - - -
6/22 12:00am 0 0 G 0 79° 31% - - 46° 98.5° 78.5° - - -
6/21 11:40pm 107 2 G 3 79° 32% - - 47° 98.5° 78.7° - - -
6/21 11:20pm 92 1 G 2 79° 33% - - 48° 98.5° 79.2° - - -
6/21 11:10pm 101 1 G 1 80° 33% - - 48° 98.5° 79.3° - - -
6/21 10:50pm 0 0 G 0 80° 33% - - 48° 98.5° 79.3° - - -
6/21 10:40pm 0 0 G 0 80° 33% - - 48° 98.5° 79.6° - - -
6/21 10:30pm 203 1 G 2 81° 32% - - 49° 98.5° 80.5° - - -
6/21 10:20pm 246 2 G 2 81° 33% - - 49° 98.5° 80.9° - - -
6/21 10:10pm 96 0 G 1 82° 31% - - 48° 98.5° 81° - - -
6/21 10:00pm 107 0 G 1 83° 30% - - 48° 98.5° 82.1° - - -
6/21 9:50pm 100 1 G 1 83° 30% - - 48° 98.5° 82.1° - - -
6/21 9:40pm 107 1 G 2 83° 30% - - 49° 98.5° 82.1° - - -
6/21 9:30pm 98 2 G 3 83° 30% - - 49° 98.5° 82.1° - - -
6/21 9:20pm 102 2 G 4 84° 28% - - 47° 98.5° 82.1° - - -
6/21 9:10pm 108 2 G 4 84° 27% - - 46° 98.5° 82.1° - - -
6/21 9:00pm 94 2 G 3 84° 26% - - 45° 98.5° 82.1° - - -
6/21 8:50pm 161 1 G 2 85° 22% - - 42° 98.5° 82.1° - - -
6/21 8:40pm 239 0 G 1 85° 22% - - 42° 98.5° 82.1° - - -
6/21 8:30pm 259 1 G 2 84° 23% - - 43° 98.5° 82.1° - - -
6/21 8:20pm 170 1 G 4 85° 24% - - 44° 98.5° 82.1° - - -
6/21 8:10pm 301 1 G 3 85° 23% - - 44° 98.5° 82.1° - - -
6/21 8:00pm 296 1 G 3 86° 23% - - 44° 98.5° 82.1° - - -
6/21 7:50pm 227 1 G 3 86° 25% - - 45° 98.5° 82.1° - - -
6/21 7:40pm 207 0 G 2 86° 27% - - 48° 98.5° 82.1° - - -
6/21 7:30pm 186 0 G 2 86° 27% - - 48° 98.5° 82.1° - - -
6/21 7:20pm 206 3 G 5 86° 28% - - 49° 98.5° 82.1° - - -
6/21 7:10pm 229 3 G 5 86° 28% - - 50° 98.5° 82.1° - - -
6/21 7:00pm 241 4 G 7 87° 27% - - 49° 98.5° 82.1° - - -
6/21 6:50pm 240 4 G 8 88° 26% - - 48° 98.5° 82.1° - - -
6/21 6:40pm 230 5 G 7 87° 26% - - 48° 98.5° 82.1° - - -
6/21 6:30pm 229 5 G 8 88° 26% - - 49° 98.5° 82.1° - - -
6/21 6:20pm 245 5 G 10 89° 25% - - 49° 98.5° 82.1° - - -
6/21 6:10pm 223 5 G 8 89° 26% - - 49° 98.5° 82.1° - - -
6/21 6:00pm 221 6 G 9 89° 26% - - 49° 98.5° 82.1° - - -
6/21 5:50pm 226 6 G 10 90° 25% - - 49° 98.5° 82.1° - - -
6/21 5:40pm 239 6 G 10 91° 24% - - 49° 98.5° 82.1° - - -
6/21 5:30pm 247 7 G 11 91° 23% - - 48° 98.5° 82.1° - - -
6/21 5:20pm 256 7 G 11 92° 21% - - 46° 98.5° 82.1° - - -
6/21 5:10pm 239 6 G 10 92° 21% - - 46° 98.5° 82.1° - - -
6/21 5:00pm 224 6 G 10 92° 19% - - 45° 98.5° 82.1° - - -
6/21 4:50pm 235 6 G 10 93° 19% - - 45° 98.5° 82.1° - - -
6/21 4:40pm 251 6 G 10 94° 19% - - 44° 98.5° 82.1° - - -
6/21 4:30pm 238 7 G 12 93° 18% - - 44° 98.5° 82.1° - - -
6/21 4:20pm 235 7 G 11 94° 19% - - 45° 98.5° 82.1° - - -
6/21 4:10pm 237 9 G 13 94° 19% - - 45° 98.5° 82.1° - - -
6/21 4:00pm 251 9 G 16 94° 18% - - 44° 98.5° 82.1° - - -
6/21 3:50pm 263 11 G 15 94° 18% - - 43° 98.5° 82.1° - - -
6/21 3:40pm 266 11 G 16 94° 17% - - 42° 98.5° 82.1° - - -
6/21 3:30pm 256 11 G 17 95° 16% - - 41° 98.5° 82.1° - - -
6/21 3:20pm 258 9 G 15 96° 14% - - 40° 98.5° 82.1° - - -
6/21 3:10pm 265 11 G 17 96° 14% - - 39° 98.5° 82.1° - - -
6/21 3:00pm 260 11 G 16 96° 14% - - 39° 98.5° 82.1° - - -
6/21 2:50pm 268 11 G 17 97° 14% - - 39° 98.5° 82.1° - - -
6/21 2:40pm 264 10 G 16 97° 14% - - 39° 98.5° 82.1° - - -
6/21 2:30pm 269 10 G 15 97° 14% - - 39° 98.5° 82.1° - - -
6/21 2:20pm 268 11 G 17 97° 12% - - 37° 98.5° 82.1° - - -
6/21 2:10pm 273 12 G 16 97° 13% - - 37° 98.5° 82.1° - - -
6/21 2:00pm 262 10 G 17 97° 13% - - 37° 98.5° 82.1° - - -
6/21 1:50pm 267 10 G 15 97° 12% - - 37° 97.8° 82.1° - - -
6/21 1:40pm 268 10 G 17 96° 13% - - 37° 97.4° 82.1° - - -
6/21 1:30pm 265 9 G 14 96° 14% - - 38° 97.4° 82.1° - - -
6/21 1:20pm 268 9 G 14 96° 14% - - 40° 97.4° 82.1° - - -
6/21 1:10pm 259 8 G 13 97° 14% - - 40° 97.4° 82.1° - - -
6/21 1:00pm 263 9 G 16 96° 15% - - 41° 97.4° 82.1° - - -
6/21 12:50pm 272 9 G 16 96° 15% - - 41° 97.4° 82.1° - - -
6/21 12:40pm 266 10 G 15 96° 15% - - 41° 97° 82.1° - - -
6/21 12:30pm 269 9 G 14 96° 15% - - 41° 97° 82.1° - - -
6/21 12:20pm 267 9 G 13 96° 15% - - 41° 96.9° 82.1° - - -
6/21 12:10pm 266 11 G 15 95° 15% - - 41° 96.9° 82.1° - - -
6/21 12:00pm 268 8 G 14 96° 14% - - 39° 96.9° 82.1° - - -
6/21 11:50am 274 7 G 14 96° 14% - - 38° 96.9° 82.1° - - -
6/21 11:40am 273 7 G 12 96° 13% - - 37° 96.9° 82.1° - - -
6/21 11:30am 257 5 G 9 96° 12% - - 34° 96.8° 82.1° - - -
6/21 11:20am 261 6 G 11 95° 12% - - 34° 96° 82.1° - - -
6/21 11:10am 276 6 G 11 95° 12% - - 35° 96° 82.1° - - -
6/21 11:00am 271 7 G 12 95° 11% - - 31° 95.3° 82.1° - - -
6/21 10:50am 271 7 G 11 94° 10% - - 29° 94.6° 82.1° - - -
6/21 10:40am 265 7 G 12 94° 9% - - 27° 94.3° 82.1° - - -
6/21 10:30am 265 6 G 11 94° 10% - - 28° 93.7° 82.1° - - -
6/21 10:20am 257 5 G 11 93° 10% - - 28° 93.5° 82.1° - - -
6/21 10:10am 262 5 G 9 93° 10% - - 28° 92.9° 82.1° - - -
6/21 10:00am 258 5 G 9 92° 11% - - 29° 92.8° 82.1° - - -
6/21 9:50am 258 6 G 8 92° 11% - - 29° 92.8° 82.1° - - -
6/21 9:40am 260 5 G 8 92° 11% - - 29° 92.8° 82.1° - - -
6/21 9:30am 251 4 G 7 92° 11% - - 29° 92.8° 82.1° - - -
6/21 9:20am 265 4 G 6 92° 11% - - 31° 92.8° 82.1° - - -
6/21 9:10am 261 2 G 4 92° 10% - - 28° 92.8° 82.1° - - -
6/21 9:00am 244 2 G 5 91° 11% - - 29° 92.1° 82.1° - - -
6/21 8:50am 263 4 G 5 90° 10% - - 27° 91.3° 82.1° - - -
6/21 8:40am 247 3 G 5 90° 11% - - 28° 91.3° 82.1° - - -
6/21 8:30am 255 2 G 3 91° 11% - - 29° 91.3° 82.1° - - -
6/21 8:20am 235 2 G 3 90° 11% - - 28° 90.6° 82.1° - - -
6/21 8:10am 225 2 G 3 89° 10% - - 27° 90.1° 82.1° - - -
6/21 8:00am 237 2 G 3 89° 11% - - 28° 89.4° 82.1° - - -
6/21 7:50am 271 1 G 3 89° 14% - - 33° 89.4° 82.1° - - -
6/21 7:40am 271 1 G 2 89° 13% - - 32° 89.4° 82.1° - - -
6/21 7:30am 295 0 G 2 89° 12% - - 30° 89.3° 82.1° - - -
6/21 7:20am 232 1 G 2 88° 11% - - 27° 88.9° 82.1° - - -
6/21 7:10am 234 1 G 2 88° 12% - - 28° 88.6° 82.1° - - -
6/21 7:00am 312 0 G 2 88° 11% - - 27° 88.6° 82.1° - - -
6/21 6:50am 257 0 G 2 87° 11% - - 26° 88° 82.1° - - -
6/21 6:40am 248 2 G 4 87° 11% - - 26° 87.2° 82.1° - - -
6/21 6:30am 217 2 G 4 87° 11% - - 26° 87° 82.1° - - -
6/21 6:20am 216 2 G 3 87° 12% - - 27° 86.7° 82.1° - - -
6/21 6:10am 223 2 G 3 86° 12% - - 28° 86.4° 82.1° - - -
6/21 6:00am 268 1 G 3 84° 13% - - 28° 86° 82.1° - - -
6/21 5:50am 220 0 G 2 85° 13% - - 28° 86° 82.1° - - -
6/21 5:40am 198 0 G 2 85° 13% - - 29° 86° 82.1° - - -
6/21 5:30am 69 1 G 3 85° 13% - - 29° 86° 82.1° - - -
6/21 5:20am 146 2 G 5 86° 14% - - 30° 86° 82.1° - - -
6/21 5:10am 112 2 G 5 85° 15% - - 32° 85.5° 82.1° - - -
6/21 5:00am 241 2 G 4 85° 16% - - 34° 85.5° 82.1° - - -
6/21 4:50am 256 2 G 4 85° 18% - - 36° 85.5° 82.1° - - -
6/21 4:40am 227 2 G 6 85° 19% - - 37° 85.5° 82.1° - - -
6/21 4:30am 273 1 G 4 85° 19% - - 38° 85.5° 82.1° - - -
6/21 4:20am 220 1 G 3 84° 20% - - 39° 85.5° 82.1° - - -
6/21 4:10am 99 3 G 5 84° 21% - - 40° 85.5° 82.1° - - -
6/21 4:00am 116 3 G 6 83° 23% - - 41° 85.5° 82.1° - - -
6/21 3:50am 163 1 G 3 83° 23% - - 42° 85.5° 82.1° - - -
6/21 3:40am 279 1 G 4 84° 23% - - 42° 85.5° 82.4° - - -
6/21 3:30am 261 1 G 4 84° 24% - - 43° 85.5° 82.4° - - -
6/21 3:20am 246 1 G 4 84° 24% - - 43° 85.5° 82.4° - - -
6/21 3:10am 208 2 G 5 84° 24% - - 43° 85.5° 82.4° - - -
6/21 3:00am 165 1 G 2 83° 24% - - 42° 85.5° 82.4° - - -
6/21 2:50am 189 2 G 5 84° 23% - - 42° 85.5° 82.4° - - -
6/21 2:40am 208 3 G 7 84° 23% - - 42° 85.5° 82.4° - - -
6/21 2:30am 201 2 G 4 83° 23% - - 42° 85.5° 82.4° - - -
6/21 2:20am 209 2 G 4 84° 23% - - 42° 85.5° 82.5° - - -
6/21 2:10am 206 2 G 4 83° 23% - - 41° 85.5° 82.5° - - -
6/21 2:00am 210 2 G 4 83° 23% - - 41° 85.5° 82.5° - - -
6/21 1:50am 190 1 G 4 84° 22% - - 41° 85.5° 83.6° - - -
6/21 1:40am 205 2 G 4 85° 22% - - 41° 85.5° 83.6° - - -
6/21 1:30am 316 1 G 4 85° 21% - - 40° 85.5° 83.6° - - -
6/21 1:20am 181 2 G 4 85° 21% - - 40° 85.5° 83.6° - - -
6/21 1:10am 141 2 G 5 85° 21% - - 41° 85.5° 83.6° - - -
6/21 1:00am 170 1 G 4 85° 21% - - 41° 85.5° 83.6° - - -
6/21 12:50am 218 1 G 3 85° 21% - - 41° 85.4° 83.6° - - -
6/21 12:40am 190 1 G 3 85° 23% - - 42° 85.1° 83.6° - - -
6/21 12:30am 189 1 G 3 85° 23% - - 43° 84.8° 83.6° - - -
6/21 12:20am 154 1 G 4 84° 24% - - 43° 84.3° 83.6° - - -
6/21 12:10am 184 1 G 2 84° 24% - - 43° 84.2° 83.6° - - -
6/21 12:00am 224 2 G 6 85° 24% - - 44° 98.9° 74.7° - - -
6/20 11:50pm 194 2 G 4 85° 24% - - 44° 98.9° 74.7° - - -
6/20 11:40pm 225 1 G 5 85° 24% - - 44° 98.9° 74.7° - - -
6/20 11:30pm 339 2 G 6 85° 25% - - 45° 98.9° 74.7° - - -
6/20 11:20pm 281 2 G 4 84° 25% - - 45° 98.9° 74.7° - - -
6/20 11:10pm 250 3 G 6 85° 24% - - 45° 98.9° 74.7° - - -
6/20 11:00pm 271 4 G 6 85° 24% - - 45° 98.9° 74.7° - - -
6/20 10:50pm 254 2 G 4 85° 25% - - 45° 98.9° 74.7° - - -
6/20 10:40pm 241 2 G 4 84° 26% - - 46° 98.9° 74.7° - - -
6/20 10:30pm 241 2 G 4 85° 26% - - 46° 98.9° 74.7° - - -
6/20 10:20pm 195 2 G 5 85° 27% - - 47° 98.9° 74.7° - - -
6/20 10:10pm 188 3 G 5 84° 28% - - 47° 98.9° 74.7° - - -
6/20 10:00pm 205 3 G 5 84° 28% - - 47° 98.9° 74.7° - - -
6/20 9:50pm 193 2 G 4 84° 28% - - 48° 98.9° 74.7° - - -
6/20 9:40pm 195 2 G 5 84° 29% - - 48° 98.9° 74.7° - - -
6/20 9:30pm 163 2 G 5 84° 29% - - 48° 98.9° 74.7° - - -
6/20 9:20pm 157 2 G 4 84° 30% - - 49° 98.9° 74.7° - - -
6/20 9:10pm 110 2 G 4 83° 30% - - 49° 98.9° 74.7° - - -
6/20 9:00pm 175 3 G 6 84° 30% - - 49° 98.9° 74.7° - - -
6/20 8:50pm 148 3 G 6 83° 30% - - 49° 98.9° 74.7° - - -
6/20 8:40pm 183 3 G 7 84° 30% - - 49° 98.9° 74.7° - - -
6/20 8:30pm 187 3 G 6 84° 30% - - 49° 98.9° 74.7° - - -
6/20 8:20pm 193 4 G 9 84° 29% - - 49° 98.9° 74.7° - - -
6/20 8:10pm 214 6 G 10 85° 29% - - 49° 98.9° 74.7° - - -
6/20 8:00pm 225 7 G 10 85° 28% - - 48° 98.9° 74.7° - - -
6/20 7:50pm 243 8 G 12 86° 27% - - 48° 98.9° 74.7° - - -
6/20 7:40pm 248 9 G 14 87° 26% - - 48° 98.9° 74.7° - - -
6/20 7:30pm 248 10 G 14 87° 26% - - 48° 98.9° 74.7° - - -
6/20 7:20pm 253 10 G 14 88° 25% - - 48° 98.9° 74.7° - - -
6/20 7:10pm 256 10 G 16 89° 24% - - 47° 98.9° 74.7° - - -
6/20 7:00pm 262 10 G 18 89° 23% - - 46° 98.9° 74.7° - - -
6/20 6:50pm 265 10 G 17 90° 22% - - 46° 98.9° 74.7° - - -
6/20 6:40pm 263 10 G 17 91° 21% - - 46° 98.9° 74.7° - - -
6/20 6:30pm 264 10 G 16 91° 21% - - 45° 98.9° 74.7° - - -
6/20 6:20pm 262 11 G 17 91° 20% - - 45° 98.9° 74.7° - - -
6/20 6:10pm 257 10 G 20 91° 21% - - 46° 98.9° 74.7° - - -
6/20 6:00pm 262 9 G 17 92° 20% - - 46° 98.9° 74.7° - - -